Airfield :
LOGIN :

Register | Disclaimer

   EN    FR    IT 

 










Legend :    VFR   Marginal VFR   IFR   Intensive IFR   Very Intensive IFR
Visi :
Ceiling :
>= 8 km
>= 3000ft
5 to 8 km
1000 to 3000 ft
1500m to 5 km
500 to 1000 ft
800 to 1500m
200 to 500 ft
< 800m
< 200 ft
Symbols :   Thunderstorms  Fog  Heavy snow  Heavy precipitations  Wind > 20 kt
SIGMETs :     Misc.  Thunderstorms  Icing  Turbulence  Mountain Waves  Volcanic Ashes






- Airport Elevation : 59 ft
- IATA code : GSE


ESGP - Save AB

CURRENT METAR :
  • 041250Z 21012KT 9999 BKN010 15/11 Q1015

EXPIRED METARs :
  • 041220Z 21010KT 9999 SCT009 BKN013 14/11 Q1015
  • 041150Z 20009KT 9999 FEW009 BKN012 14/11 Q1015
  • 041120Z 20011KT 9999 SCT009 BKN011 BKN015 14/11 Q1015
  • 041050Z 20010KT 9999 SCT008 BKN010 14/11 Q1016
  • 041020Z 21007KT 9999 BKN007 13/11 Q1015
  • 040950Z 21008KT 9999 BKN007 13/11 Q1016

TAF TAF ESGP
Valid from the 04 at 12:00 until the 04 at 21:00 UTC


041130Z 0412/0421 21008KT 9999 SCT010 BKN020
PROB40 0412/0415 BKN010



MET'MAP, your aeronautical weather chart ! - Copyright ORBIFLY December 2007 - Disclaimer

ORBIFLY MET'MAP TEAM :

Programming & Development : Alexandra Zaïnal
Original concept : Baudouin d'Aumeries
Technical & hardware support : Manuel Goepfert
Assistance : Marc-Olivier Méhu




SOURCES & CREDITS :

   NOAA